sensor_id;sensor_type;location;lat;lon;timestamp;pressure;altitude;pressure_sealevel;temperature;humidity
78144;BME280;67394;52.522;13.622;2023-04-16T00:01:11;100871.56;;;8.89;97.62
78144;BME280;67394;52.522;13.622;2023-04-16T00:03:37;100871.59;;;8.95;97.50
78144;BME280;67394;52.522;13.622;2023-04-16T00:06:04;100875.81;;;8.91;97.75
78144;BME280;67394;52.522;13.622;2023-04-16T00:08:30;100874.94;;;8.86;97.92
78144;BME280;67394;52.522;13.622;2023-04-16T00:10:57;100875.00;;;8.94;98.14
78144;BME280;67394;52.522;13.622;2023-04-16T00:13:23;100876.63;;;8.87;97.35
78144;BME280;67394;52.522;13.622;2023-04-16T00:15:49;100878.28;;;8.84;97.81
78144;BME280;67394;52.522;13.622;2023-04-16T00:18:16;100887.66;;;8.81;97.81
78144;BME280;67394;52.522;13.622;2023-04-16T00:20:42;100880.84;;;8.82;97.59
78144;BME280;67394;52.522;13.622;2023-04-16T00:23:08;100880.00;;;8.83;98.43
78144;BME280;67394;52.522;13.622;2023-04-16T00:25:34;100887.69;;;8.85;97.74
78144;BME280;67394;52.522;13.622;2023-04-16T00:28:01;100888.53;;;8.85;97.64
78144;BME280;67394;52.522;13.622;2023-04-16T00:30:27;100887.66;;;8.81;98.58
78144;BME280;67394;52.522;13.622;2023-04-16T00:32:56;100889.41;;;8.86;97.97
78144;BME280;67394;52.522;13.622;2023-04-16T00:35:23;100880.81;;;8.80;97.70
78144;BME280;67394;52.522;13.622;2023-04-16T00:37:49;100882.50;;;8.80;98.04
78144;BME280;67394;52.522;13.622;2023-04-16T00:40:16;100884.22;;;8.78;97.82
78144;BME280;67394;52.522;13.622;2023-04-16T00:42:42;100894.44;;;8.78;98.14
78144;BME280;67394;52.522;13.622;2023-04-16T00:45:09;100888.47;;;8.80;97.76
78144;BME280;67394;52.522;13.622;2023-04-16T00:47:36;100890.19;;;8.80;98.66
78144;BME280;67394;52.522;13.622;2023-04-16T00:50:03;100886.78;;;8.81;97.86
78144;BME280;67394;52.522;13.622;2023-04-16T00:52:31;100892.78;;;8.83;98.63
78144;BME280;67394;52.522;13.622;2023-04-16T00:54:58;100886.81;;;8.82;98.70
78144;BME280;67394;52.522;13.622;2023-04-16T00:57:24;100895.31;;;8.81;98.77
78144;BME280;67394;52.522;13.622;2023-04-16T00:59:50;100888.47;;;8.80;98.97
78144;BME280;67394;52.522;13.622;2023-04-16T01:02:17;100890.19;;;8.81;98.13
78144;BME280;67394;52.522;13.622;2023-04-16T01:04:43;100893.63;;;8.84;98.29
78144;BME280;67394;52.522;13.622;2023-04-16T01:07:10;100895.34;;;8.85;97.85
78144;BME280;67394;52.522;13.622;2023-04-16T01:09:36;100891.06;;;8.84;98.14
78144;BME280;67394;52.522;13.622;2023-04-16T01:12:02;100900.41;;;8.81;97.99
78144;BME280;67394;52.522;13.622;2023-04-16T01:14:29;100897.88;;;8.83;98.47
78144;BME280;67394;52.522;13.622;2023-04-16T01:16:55;100901.31;;;8.85;97.93
78144;BME280;67394;52.522;13.622;2023-04-16T01:19:21;100901.31;;;8.84;98.65
78144;BME280;67394;52.522;13.622;2023-04-16T01:21:48;100899.66;;;8.87;97.53
78144;BME280;67394;52.522;13.622;2023-04-16T01:24:14;100909.88;;;8.87;97.59
78144;BME280;67394;52.522;13.622;2023-04-16T01:26:40;100912.44;;;8.87;98.70
78144;BME280;67394;52.522;13.622;2023-04-16T01:29:07;100900.47;;;8.85;98.25
78144;BME280;67394;52.522;13.622;2023-04-16T01:31:33;100903.03;;;8.86;98.61
78144;BME280;67394;52.522;13.622;2023-04-16T01:34:00;100910.72;;;8.88;98.31
78144;BME280;67394;52.522;13.622;2023-04-16T01:36:26;100912.44;;;8.87;98.34
78144;BME280;67394;52.522;13.622;2023-04-16T01:38:53;100917.47;;;8.82;98.38
78144;BME280;67394;52.522;13.622;2023-04-16T01:41:19;100908.94;;;8.80;97.99
78144;BME280;67394;52.522;13.622;2023-04-16T01:43:45;100915.75;;;8.81;98.53
78144;BME280;67394;52.522;13.622;2023-04-16T01:46:22;100914.13;;;8.87;98.03
78144;BME280;67394;52.522;13.622;2023-04-16T01:48:52;100912.38;;;8.82;98.87
78144;BME280;67394;52.522;13.622;2023-04-16T01:51:19;100914.13;;;8.87;97.84
78144;BME280;67394;52.522;13.622;2023-04-16T01:53:46;100917.56;;;8.92;97.60
78144;BME280;67394;52.522;13.622;2023-04-16T01:56:12;100917.50;;;8.86;97.74
78144;BME280;67394;52.522;13.622;2023-04-16T01:58:38;100918.41;;;8.91;97.41
78144;BME280;67394;52.522;13.622;2023-04-16T02:01:05;100918.34;;;8.85;97.77
78144;BME280;67394;52.522;13.622;2023-04-16T02:03:31;100921.75;;;8.84;98.25
78144;BME280;67394;52.522;13.622;2023-04-16T02:05:58;100925.16;;;8.82;97.97
78144;BME280;67394;52.522;13.622;2023-04-16T02:08:24;100919.22;;;8.87;98.53
78144;BME280;67394;52.522;13.622;2023-04-16T02:10:51;100921.84;;;8.90;97.66
78144;BME280;67394;52.522;13.622;2023-04-16T02:13:17;100924.44;;;8.96;97.50
78144;BME280;67394;52.522;13.622;2023-04-16T02:15:49;100923.53;;;8.89;97.99
78144;BME280;67394;52.522;13.622;2023-04-16T02:18:15;100923.47;;;8.85;98.55
78144;BME280;67394;52.522;13.622;2023-04-16T02:20:43;100931.94;;;8.82;97.99
78144;BME280;67394;52.522;13.622;2023-04-16T02:23:10;100931.94;;;8.82;98.41
78144;BME280;67394;52.522;13.622;2023-04-16T02:25:37;100929.41;;;8.82;98.89
78144;BME280;67394;52.522;13.622;2023-04-16T02:28:10;100929.41;;;8.82;98.50
78144;BME280;67394;52.522;13.622;2023-04-16T02:30:37;100925.97;;;8.78;98.83
78144;BME280;67394;52.522;13.622;2023-04-16T02:33:05;100940.44;;;8.79;98.55
78144;BME280;67394;52.522;13.622;2023-04-16T02:35:35;100938.75;;;8.80;98.75
78144;BME280;67394;52.522;13.622;2023-04-16T02:38:02;100943.00;;;8.79;98.52
78144;BME280;67394;52.522;13.622;2023-04-16T02:40:29;100935.31;;;8.79;98.73
78144;BME280;67394;52.522;13.622;2023-04-16T02:42:56;100938.75;;;8.80;98.33
78144;BME280;67394;52.522;13.622;2023-04-16T02:45:23;100937.06;;;8.79;98.33
78144;BME280;67394;52.522;13.622;2023-04-16T02:47:50;100935.44;;;8.87;97.89
78144;BME280;67394;52.522;13.622;2023-04-16T02:50:16;100942.19;;;8.82;98.38
78144;BME280;67394;52.522;13.622;2023-04-16T02:52:43;100945.56;;;8.78;98.17
78144;BME280;67394;52.522;13.622;2023-04-16T02:55:10;100941.28;;;8.80;98.44
78144;BME280;67394;52.522;13.622;2023-04-16T02:57:36;100943.84;;;8.80;98.29
78144;BME280;67394;52.522;13.622;2023-04-16T03:00:03;100948.97;;;8.80;98.85
78144;BME280;67394;52.522;13.622;2023-04-16T03:02:29;100948.97;;;8.80;97.87
78144;BME280;67394;52.522;13.622;2023-04-16T03:04:56;100940.47;;;8.81;98.65
78144;BME280;67394;52.522;13.622;2023-04-16T03:07:22;100950.78;;;8.89;98.30
78144;BME280;67394;52.522;13.622;2023-04-16T03:09:49;100946.50;;;8.88;98.09
78144;BME280;67394;52.522;13.622;2023-04-16T03:12:23;100953.25;;;8.82;98.84
78144;BME280;67394;52.522;13.622;2023-04-16T03:14:50;100960.09;;;8.84;98.22
78144;BME280;67394;52.522;13.622;2023-04-16T03:17:16;100959.19;;;8.80;98.22
78144;BME280;67394;52.522;13.622;2023-04-16T03:19:43;100964.28;;;8.80;98.50
78144;BME280;67394;52.522;13.622;2023-04-16T03:22:09;100956.66;;;8.81;98.48
78144;BME280;67394;52.522;13.622;2023-04-16T03:24:35;100963.53;;;8.86;98.55
78144;BME280;67394;52.522;13.622;2023-04-16T03:27:02;100955.78;;;8.79;98.39
78144;BME280;67394;52.522;13.622;2023-04-16T03:29:28;100964.28;;;8.77;98.12
78144;BME280;67394;52.522;13.622;2023-04-16T03:31:55;100966.88;;;8.78;98.06
78144;BME280;67394;52.522;13.622;2023-04-16T03:34:21;100962.50;;;8.71;97.97
78144;BME280;67394;52.522;13.622;2023-04-16T03:36:47;100965.06;;;8.71;98.80
78144;BME280;67394;52.522;13.622;2023-04-16T03:39:14;100972.84;;;8.82;98.20
78144;BME280;67394;52.522;13.622;2023-04-16T03:41:40;100972.69;;;8.68;97.51
78144;BME280;67394;52.522;13.622;2023-04-16T03:44:06;100970.97;;;8.69;98.09
78144;BME280;67394;52.522;13.622;2023-04-16T03:46:32;100966.72;;;8.66;98.49
78144;BME280;67394;52.522;13.622;2023-04-16T03:49:02;100980.31;;;8.65;98.15
78144;BME280;67394;52.522;13.622;2023-04-16T03:51:28;100974.25;;;8.57;98.48
78144;BME280;67394;52.522;13.622;2023-04-16T03:53:55;100976.00;;;8.61;98.37
78144;BME280;67394;52.522;13.622;2023-04-16T03:56:21;100986.16;;;8.55;98.69
78144;BME280;67394;52.522;13.622;2023-04-16T03:58:47;100990.44;;;8.56;98.52
78144;BME280;67394;52.522;13.622;2023-04-16T04:01:13;100994.66;;;8.54;98.51
78144;BME280;67394;52.522;13.622;2023-04-16T04:03:40;100991.22;;;8.52;97.76
78144;BME280;67394;52.522;13.622;2023-04-16T04:06:07;100997.97;;;8.47;98.21
78144;BME280;67394;52.522;13.622;2023-04-16T04:08:34;101003.06;;;8.49;97.96
78144;BME280;67394;52.522;13.622;2023-04-16T04:11:00;101001.38;;;8.46;98.41
78144;BME280;67394;52.522;13.622;2023-04-16T04:13:26;101003.88;;;8.43;98.37
78144;BME280;67394;52.522;13.622;2023-04-16T04:15:53;101008.97;;;8.43;97.92
78144;BME280;67394;52.522;13.622;2023-04-16T04:18:19;101013.22;;;8.42;97.79
78144;BME280;67394;52.522;13.622;2023-04-16T04:20:46;101014.91;;;8.42;98.08
78144;BME280;67394;52.522;13.622;2023-04-16T04:23:12;101016.69;;;8.46;97.72
78144;BME280;67394;52.522;13.622;2023-04-16T04:25:38;101013.16;;;8.39;98.33
78144;BME280;67394;52.522;13.622;2023-04-16T04:28:05;101018.22;;;8.33;97.95
78144;BME280;67394;52.522;13.622;2023-04-16T04:30:31;101017.31;;;8.31;98.41
78144;BME280;67394;52.522;13.622;2023-04-16T04:32:57;101025.00;;;8.33;98.41
78144;BME280;67394;52.522;13.622;2023-04-16T04:35:24;101016.50;;;8.34;98.77
78144;BME280;67394;52.522;13.622;2023-04-16T04:37:50;101019.94;;;8.37;98.28
78144;BME280;67394;52.522;13.622;2023-04-16T04:40:16;101022.44;;;8.33;98.47
78144;BME280;67394;52.522;13.622;2023-04-16T04:42:43;101018.97;;;8.31;98.36
78144;BME280;67394;52.522;13.622;2023-04-16T04:45:09;101020.66;;;8.29;98.34
78144;BME280;67394;52.522;13.622;2023-04-16T04:47:36;101027.47;;;8.30;98.74
78144;BME280;67394;52.522;13.622;2023-04-16T04:50:02;101024.09;;;8.31;98.01
78144;BME280;67394;52.522;13.622;2023-04-16T04:52:29;101035.97;;;8.29;98.63
78144;BME280;67394;52.522;13.622;2023-04-16T04:54:55;101033.50;;;8.32;98.20
78144;BME280;67394;52.522;13.622;2023-04-16T04:57:22;101029.28;;;8.34;98.80
78144;BME280;67394;52.522;13.622;2023-04-16T04:59:48;101042.94;;;8.37;97.79
78144;BME280;67394;52.522;13.622;2023-04-16T05:02:15;101042.88;;;8.33;98.44
78144;BME280;67394;52.522;13.622;2023-04-16T05:04:41;101047.97;;;8.31;97.97
78144;BME280;67394;52.522;13.622;2023-04-16T05:07:07;101046.22;;;8.30;97.95
78144;BME280;67394;52.522;13.622;2023-04-16T05:09:34;101044.53;;;8.31;98.60
78144;BME280;67394;52.522;13.622;2023-04-16T05:12:00;101046.19;;;8.29;98.34
78144;BME280;67394;52.522;13.622;2023-04-16T05:14:27;101052.19;;;8.31;98.68
78144;BME280;67394;52.522;13.622;2023-04-16T05:16:53;101058.94;;;8.29;99.05
78144;BME280;67394;52.522;13.622;2023-04-16T05:19:19;101054.69;;;8.28;98.83
78144;BME280;67394;52.522;13.622;2023-04-16T05:21:46;101066.63;;;8.29;97.96
78144;BME280;67394;52.522;13.622;2023-04-16T05:24:12;101059.75;;;8.25;98.77
78144;BME280;67394;52.522;13.622;2023-04-16T05:26:40;101066.59;;;8.27;98.47
78144;BME280;67394;52.522;13.622;2023-04-16T05:29:06;101074.38;;;8.32;98.63
78144;BME280;67394;52.522;13.622;2023-04-16T05:31:33;101067.47;;;8.29;98.22
78144;BME280;67394;52.522;13.622;2023-04-16T05:33:59;101070.00;;;8.28;98.69
78144;BME280;67394;52.522;13.622;2023-04-16T05:36:26;101072.69;;;8.34;98.09
78144;BME280;67394;52.522;13.622;2023-04-16T05:38:52;101074.28;;;8.29;98.56
78144;BME280;67394;52.522;13.622;2023-04-16T05:41:19;101081.16;;;8.31;97.92
78144;BME280;67394;52.522;13.622;2023-04-16T05:43:45;101080.28;;;8.31;99.00
78144;BME280;67394;52.522;13.622;2023-04-16T05:46:11;101081.19;;;8.33;98.92
78144;BME280;67394;52.522;13.622;2023-04-16T05:48:38;101080.38;;;8.34;97.83
78144;BME280;67394;52.522;13.622;2023-04-16T05:51:04;101083.75;;;8.33;98.73
78144;BME280;67394;52.522;13.622;2023-04-16T05:53:30;101086.16;;;8.27;98.18
78144;BME280;67394;52.522;13.622;2023-04-16T05:55:57;101093.94;;;8.31;98.41
78144;BME280;67394;52.522;13.622;2023-04-16T05:58:23;101091.38;;;8.31;98.49
78144;BME280;67394;52.522;13.622;2023-04-16T06:00:49;101095.69;;;8.34;98.01
78144;BME280;67394;52.522;13.622;2023-04-16T06:03:16;101093.22;;;8.40;98.43
78144;BME280;67394;52.522;13.622;2023-04-16T06:05:43;101088.06;;;8.35;98.54
78144;BME280;67394;52.522;13.622;2023-04-16T06:08:09;101099.06;;;8.33;98.49
78144;BME280;67394;52.522;13.622;2023-04-16T06:10:36;101097.53;;;8.44;98.37
78144;BME280;67394;52.522;13.622;2023-04-16T06:13:02;101089.81;;;8.41;98.30
78144;BME280;67394;52.522;13.622;2023-04-16T06:15:29;101103.44;;;8.40;97.83
78144;BME280;67394;52.522;13.622;2023-04-16T06:17:55;101103.50;;;8.44;97.70
78144;BME280;67394;52.522;13.622;2023-04-16T06:20:22;101108.69;;;8.49;97.93
78144;BME280;67394;52.522;13.622;2023-04-16T06:22:48;101106.91;;;8.43;97.46
78144;BME280;67394;52.522;13.622;2023-04-16T06:25:15;101114.69;;;8.53;97.98
78144;BME280;67394;52.522;13.622;2023-04-16T06:27:43;101109.56;;;8.51;97.76
78144;BME280;67394;52.522;13.622;2023-04-16T06:30:14;101114.66;;;8.50;97.93
78144;BME280;67394;52.522;13.622;2023-04-16T06:32:42;101114.69;;;8.53;98.13
78144;BME280;67394;52.522;13.622;2023-04-16T06:35:08;101119.81;;;8.53;97.91
78144;BME280;67394;52.522;13.622;2023-04-16T06:37:35;101122.47;;;8.60;97.65
78144;BME280;67394;52.522;13.622;2023-04-16T06:40:01;101125.88;;;8.59;97.14
78144;BME280;67394;52.522;13.622;2023-04-16T06:42:28;101127.59;;;8.60;97.21
78144;BME280;67394;52.522;13.622;2023-04-16T06:44:54;101120.88;;;8.65;96.18
78144;BME280;67394;52.522;13.622;2023-04-16T06:47:21;101125.84;;;8.56;97.09
78144;BME280;67394;52.522;13.622;2023-04-16T06:49:47;101115.63;;;8.59;97.66
78144;BME280;67394;52.522;13.622;2023-04-16T06:52:13;101125.09;;;8.63;96.44
78144;BME280;67394;52.522;13.622;2023-04-16T06:54:40;101130.25;;;8.66;97.73
78144;BME280;67394;52.522;13.622;2023-04-16T06:57:09;101131.09;;;8.67;97.17
78144;BME280;67394;52.522;13.622;2023-04-16T06:59:35;101132.84;;;8.68;96.63
78144;BME280;67394;52.522;13.622;2023-04-16T07:02:01;101136.25;;;8.70;96.35
78144;BME280;67394;52.522;13.622;2023-04-16T07:04:28;101135.50;;;8.75;97.33
78144;BME280;67394;52.522;13.622;2023-04-16T07:06:54;101138.09;;;8.78;96.94
78144;BME280;67394;52.522;13.622;2023-04-16T07:09:21;101131.25;;;8.76;97.05
78144;BME280;67394;52.522;13.622;2023-04-16T07:11:47;101138.13;;;8.81;96.83
78144;BME280;67394;52.522;13.622;2023-04-16T07:14:13;101134.63;;;8.75;97.15
78144;BME280;67394;52.522;13.622;2023-04-16T07:16:40;101144.06;;;8.80;96.72
78144;BME280;67394;52.522;13.622;2023-04-16T07:19:06;101140.59;;;8.75;96.70
78144;BME280;67394;52.522;13.622;2023-04-16T07:21:33;101150.00;;;8.79;97.17
78144;BME280;67394;52.522;13.622;2023-04-16T07:23:59;101148.41;;;8.85;96.00
78144;BME280;67394;52.522;13.622;2023-04-16T07:26:25;101148.44;;;8.86;95.34
78144;BME280;67394;52.522;13.622;2023-04-16T07:28:52;101153.53;;;8.86;96.50
78144;BME280;67394;52.522;13.622;2023-04-16T07:31:18;101156.13;;;8.88;96.60
78144;BME280;67394;52.522;13.622;2023-04-16T07:33:45;101159.47;;;8.84;96.19
78144;BME280;67394;52.522;13.622;2023-04-16T07:36:11;101157.84;;;8.89;96.05
78144;BME280;67394;52.522;13.622;2023-04-16T07:38:37;101161.25;;;8.91;96.78
78144;BME280;67394;52.522;13.622;2023-04-16T07:41:04;101160.44;;;8.93;95.57
78144;BME280;67394;52.522;13.622;2023-04-16T07:43:30;101174.94;;;8.93;96.39
78144;BME280;67394;52.522;13.622;2023-04-16T07:45:56;101168.13;;;8.93;96.92
78144;BME280;67394;52.522;13.622;2023-04-16T07:48:23;101169.81;;;8.93;95.62
78144;BME280;67394;52.522;13.622;2023-04-16T07:50:49;101177.47;;;8.90;95.99
78144;BME280;67394;52.522;13.622;2023-04-16T07:53:16;101169.72;;;8.85;95.55
78144;BME280;67394;52.522;13.622;2023-04-16T07:55:42;101178.19;;;8.82;95.87
78144;BME280;67394;52.522;13.622;2023-04-16T07:58:08;101184.13;;;8.81;96.66
78144;BME280;67394;52.522;13.622;2023-04-16T08:00:35;101179.06;;;8.83;95.79
78144;BME280;67394;52.522;13.622;2023-04-16T08:03:01;101176.44;;;8.78;96.46
78144;BME280;67394;52.522;13.622;2023-04-16T08:05:28;101182.50;;;8.85;96.96
78144;BME280;67394;52.522;13.622;2023-04-16T08:07:54;101184.25;;;8.91;96.67
78144;BME280;67394;52.522;13.622;2023-04-16T08:10:21;101192.78;;;8.91;96.14
78144;BME280;67394;52.522;13.622;2023-04-16T08:12:47;101191.91;;;8.88;96.69
78144;BME280;67394;52.522;13.622;2023-04-16T08:15:14;101188.53;;;8.92;96.49
78144;BME280;67394;52.522;13.622;2023-04-16T08:17:40;101191.13;;;8.93;96.76
78144;BME280;67394;52.522;13.622;2023-04-16T08:20:07;101200.63;;;9.02;96.47
78144;BME280;67394;52.522;13.622;2023-04-16T08:22:33;101199.75;;;9.01;97.14
78144;BME280;67394;52.522;13.622;2023-04-16T08:24:59;101202.31;;;8.98;95.69
78144;BME280;67394;52.522;13.622;2023-04-16T08:27:28;101205.69;;;8.97;96.47
78144;BME280;67394;52.522;13.622;2023-04-16T08:29:54;101206.56;;;8.98;96.25
78144;BME280;67394;52.522;13.622;2023-04-16T08:32:24;101204.88;;;9.01;96.72
78144;BME280;67394;52.522;13.622;2023-04-16T08:34:51;101214.28;;;9.02;96.06
78144;BME280;67394;52.522;13.622;2023-04-16T08:37:17;101211.72;;;9.02;95.85
78144;BME280;67394;52.522;13.622;2023-04-16T08:39:44;101223.63;;;9.00;95.77
78144;BME280;67394;52.522;13.622;2023-04-16T08:42:16;101224.56;;;9.05;96.59
78144;BME280;67394;52.522;13.622;2023-04-16T08:44:47;101224.47;;;9.01;95.89
78144;BME280;67394;52.522;13.622;2023-04-16T08:47:15;101228.66;;;8.96;95.78
78144;BME280;67394;52.522;13.622;2023-04-16T08:49:44;101231.28;;;8.99;95.43
78144;BME280;67394;52.522;13.622;2023-04-16T08:52:15;101227.88;;;9.01;96.28
78144;BME280;67394;52.522;13.622;2023-04-16T08:57:29;101229.47;;;8.93;96.06
78144;BME280;67394;52.522;13.622;2023-04-16T08:59:59;101237.19;;;8.95;95.87
78144;BME280;67394;52.522;13.622;2023-04-16T09:02:29;101239.72;;;8.95;95.98
78144;BME280;67394;52.522;13.622;2023-04-16T09:04:58;101232.13;;;8.98;96.03
78144;BME280;67394;52.522;13.622;2023-04-16T09:07:27;101234.81;;;9.07;96.19
78144;BME280;67394;52.522;13.622;2023-04-16T09:09:56;101235.72;;;9.10;95.65
78144;BME280;67394;52.522;13.622;2023-04-16T09:12:24;101235.00;;;9.19;95.87
78144;BME280;67394;52.522;13.622;2023-04-16T09:14:51;101241.94;;;9.28;95.26
78144;BME280;67394;52.522;13.622;2023-04-16T09:17:18;101244.72;;;9.44;96.11
78144;BME280;67394;52.522;13.622;2023-04-16T09:19:45;101243.75;;;9.36;94.40
78144;BME280;67394;52.522;13.622;2023-04-16T09:22:11;101248.13;;;9.42;94.64
78144;BME280;67394;52.522;13.622;2023-04-16T09:24:37;101253.28;;;9.46;94.54
78144;BME280;67394;52.522;13.622;2023-04-16T09:27:04;101250.81;;;9.52;94.01
78144;BME280;67394;52.522;13.622;2023-04-16T09:29:38;101260.25;;;9.58;94.62
78144;BME280;67394;52.522;13.622;2023-04-16T09:32:07;101256.88;;;9.59;93.72
78144;BME280;67394;52.522;13.622;2023-04-16T09:34:52;101256.91;;;9.62;93.96
78144;BME280;67394;52.522;13.622;2023-04-16T09:37:19;101260.25;;;9.58;93.29
78144;BME280;67394;52.522;13.622;2023-04-16T09:39:53;101262.84;;;9.60;94.48
78144;BME280;67394;52.522;13.622;2023-04-16T09:42:22;101260.34;;;9.63;94.07
78144;BME280;67394;52.522;13.622;2023-04-16T09:44:48;101267.97;;;9.60;92.81
78144;BME280;67394;52.522;13.622;2023-04-16T09:47:15;101269.63;;;9.58;94.02
78144;BME280;67394;52.522;13.622;2023-04-16T09:49:44;101273.91;;;9.57;95.14
78144;BME280;67394;52.522;13.622;2023-04-16T09:52:18;101270.56;;;9.61;93.66
78144;BME280;67394;52.522;13.622;2023-04-16T09:54:49;101275.59;;;9.57;93.50
78144;BME280;67394;52.522;13.622;2023-04-16T09:57:20;101279.13;;;9.63;94.29
78144;BME280;67394;52.522;13.622;2023-04-16T09:59:52;101278.25;;;9.63;93.43
78144;BME280;67394;52.522;13.622;2023-04-16T10:02:19;101274.75;;;9.58;93.17
78144;BME280;67394;52.522;13.622;2023-04-16T10:04:50;101276.47;;;9.59;93.72
78144;BME280;67394;52.522;13.622;2023-04-16T10:07:17;101279.81;;;9.54;92.99
78144;BME280;67394;52.522;13.622;2023-04-16T10:09:45;101278.16;;;9.57;94.06
78144;BME280;67394;52.522;13.622;2023-04-16T10:12:12;101275.66;;;9.60;93.62
78144;BME280;67394;52.522;13.622;2023-04-16T10:14:38;101281.66;;;9.62;93.38
78144;BME280;67394;52.522;13.622;2023-04-16T10:17:05;101286.78;;;9.65;94.21
78144;BME280;67394;52.522;13.622;2023-04-16T10:19:32;101287.78;;;9.73;93.52
78144;BME280;67394;52.522;13.622;2023-04-16T10:21:59;101288.78;;;9.84;93.79
78144;BME280;67394;52.522;13.622;2023-04-16T10:24:26;101289.78;;;9.95;92.30
78144;BME280;67394;52.522;13.622;2023-04-16T10:26:54;101291.47;;;9.96;92.11
78144;BME280;67394;52.522;13.622;2023-04-16T10:29:20;101283.97;;;10.11;92.25
78144;BME280;67394;52.522;13.622;2023-04-16T10:31:48;101278.16;;;10.23;92.60
78144;BME280;67394;52.522;13.622;2023-04-16T10:34:15;101279.94;;;10.30;90.97
78144;BME280;67394;52.522;13.622;2023-04-16T10:36:47;101283.97;;;10.11;90.30
78144;BME280;67394;52.522;13.622;2023-04-16T10:39:17;101285.69;;;10.12;91.07
78144;BME280;67394;52.522;13.622;2023-04-16T10:41:44;101282.38;;;10.18;91.87
78144;BME280;67394;52.522;13.622;2023-04-16T10:44:11;101291.56;;;10.04;90.08
78144;BME280;67394;52.522;13.622;2023-04-16T10:46:41;101289.97;;;10.13;92.45
78144;BME280;67394;52.522;13.622;2023-04-16T10:56:49;101287.06;;;10.57;89.97
78144;BME280;67394;52.522;13.622;2023-04-16T10:59:20;101292.19;;;10.60;89.44
78144;BME280;67394;52.522;13.622;2023-04-16T11:01:49;101293.03;;;10.56;88.77
78144;BME280;67394;52.522;13.622;2023-04-16T11:09:55;101298.03;;;10.44;87.94
78144;BME280;67394;52.522;13.622;2023-04-16T11:15:00;101307.38;;;10.40;89.31
78144;BME280;67394;52.522;13.622;2023-04-16T11:17:36;101303.09;;;10.38;89.57
78144;BME280;67394;52.522;13.622;2023-04-16T11:20:24;101309.19;;;10.47;89.75
78144;BME280;67394;52.522;13.622;2023-04-16T11:22:55;101316.03;;;10.50;88.41
78144;BME280;67394;52.522;13.622;2023-04-16T11:25:26;101312.59;;;10.49;88.80
78144;BME280;67394;52.522;13.622;2023-04-16T11:27:53;101307.50;;;10.52;87.38
78144;BME280;67394;52.522;13.622;2023-04-16T11:30:33;101310.06;;;10.52;88.81
78144;BME280;67394;52.522;13.622;2023-04-16T11:33:07;101312.66;;;10.54;88.80
78144;BME280;67394;52.522;13.622;2023-04-16T11:35:34;101314.44;;;10.61;88.86
78144;BME280;67394;52.522;13.622;2023-04-16T11:38:00;101315.28;;;10.61;87.33
78144;BME280;67394;52.522;13.622;2023-04-16T11:40:30;101324.66;;;10.59;88.03
78144;BME280;67394;52.522;13.622;2023-04-16T11:43:12;101315.19;;;10.52;86.62
78144;BME280;67394;52.522;13.622;2023-04-16T11:45:40;101313.41;;;10.44;87.37
78144;BME280;67394;52.522;13.622;2023-04-16T11:48:18;101321.09;;;10.44;87.69
78144;BME280;67394;52.522;13.622;2023-04-16T11:50:54;101326.31;;;10.53;88.17
78144;BME280;67394;52.522;13.622;2023-04-16T11:53:21;101317.84;;;10.58;88.27
78144;BME280;67394;52.522;13.622;2023-04-16T11:55:49;101327.25;;;10.61;87.43
78144;BME280;67394;52.522;13.622;2023-04-16T11:58:15;101328.91;;;10.54;85.84
78144;BME280;67394;52.522;13.622;2023-04-16T12:00:42;101329.78;;;10.59;86.66
78144;BME280;67394;52.522;13.622;2023-04-16T12:03:09;101328.94;;;10.60;86.71
78144;BME280;67394;52.522;13.622;2023-04-16T12:05:37;101328.97;;;10.62;87.62
78144;BME280;67394;52.522;13.622;2023-04-16T12:08:08;101337.47;;;10.59;86.89
78144;BME280;67394;52.522;13.622;2023-04-16T12:10:37;101338.31;;;10.55;86.55
78144;BME280;67394;52.522;13.622;2023-04-16T12:13:17;101339.94;;;10.49;87.19
78144;BME280;67394;52.522;13.622;2023-04-16T12:15:54;101341.59;;;10.44;87.18
78144;BME280;67394;52.522;13.622;2023-04-16T12:18:23;101344.03;;;10.32;87.73
78144;BME280;67394;52.522;13.622;2023-04-16T12:20:50;101349.91;;;10.23;88.12
78144;BME280;67394;52.522;13.622;2023-04-16T12:23:29;101349.84;;;10.18;88.05
78144;BME280;67394;52.522;13.622;2023-04-16T12:25:57;101350.81;;;10.26;88.48
78144;BME280;67394;52.522;13.622;2023-04-16T12:28:30;101349.09;;;10.27;87.95
78144;BME280;67394;52.522;13.622;2023-04-16T12:30:57;101346.47;;;10.22;88.32
78144;BME280;67394;52.522;13.622;2023-04-16T12:33:23;101343.06;;;10.22;87.12
78144;BME280;67394;52.522;13.622;2023-04-16T12:35:50;101356.00;;;10.33;86.81
78144;BME280;67394;52.522;13.622;2023-04-16T12:38:16;101355.94;;;10.28;86.55
78144;BME280;67394;52.522;13.622;2023-04-16T12:40:42;101354.13;;;10.19;87.21
78144;BME280;67394;52.522;13.622;2023-04-16T12:43:09;101354.06;;;10.16;87.11
78144;BME280;67394;52.522;13.622;2023-04-16T12:45:36;101358.31;;;10.14;87.60
78144;BME280;67394;52.522;13.622;2023-04-16T12:48:03;101363.28;;;10.04;87.63
78144;BME280;67394;52.522;13.622;2023-04-16T12:50:29;101358.13;;;10.01;87.85
78144;BME280;67394;52.522;13.622;2023-04-16T12:52:56;101361.59;;;10.04;88.99
78144;BME280;67394;52.522;13.622;2023-04-16T12:55:24;101362.34;;;9.99;88.02
78144;BME280;67394;52.522;13.622;2023-04-16T12:57:50;101360.59;;;9.93;87.86
78144;BME280;67394;52.522;13.622;2023-04-16T13:00:18;101366.41;;;9.81;88.91
78144;BME280;67394;52.522;13.622;2023-04-16T13:02:44;101370.59;;;9.78;88.86
78144;BME280;67394;52.522;13.622;2023-04-16T13:05:11;101370.53;;;9.75;89.42
78144;BME280;67394;52.522;13.622;2023-04-16T13:07:38;101374.69;;;9.67;89.36